This is the latest recevied weather packets stored in our database for station/object MARKET. If no packets are shown the sender has not sent any weather packets the latest 10 day(s).
| Time | Temp. | Humidity | Pressure | Rain* | Wind** | Luminosity | Snow |
|---|---|---|---|---|---|---|---|
| 1777590421 | 9.44° C | 78% | 1023.9 hPa | - | - | - | - |
| 1777589222 | 8.89° C | 79% | 1023.9 hPa | - | - | - | - |
| 1777588022 | 8.33° C | 80% | 1023.9 hPa | - | - | - | - |
| 1777586821 | 9.44° C | 77% | 1024 hPa | - | - | - | - |
| 1777585622 | 9.44° C | 75% | 1024 hPa | - | - | - | - |
| 1777584422 | 8.33° C | 80% | 1024.1 hPa | - | - | - | - |
| 1777583221 | 8.33° C | 79% | 1024.1 hPa | - | - | - | - |
| 1777582021 | 10.56° C | 69% | 1024.1 hPa | - | - | - | - |
| 1777580821 | 10° C | 69% | 1024.1 hPa | - | - | - | - |
| 1777579621 | 9.44° C | 70% | 1024.1 hPa | - | - | - | - |
| 1777578421 | 8.33° C | 76% | 1024 hPa | - | - | - | - |
| 1777577221 | 8.89° C | 76% | 1024 hPa | - | - | - | - |
| 1777576021 | 8.89° C | 75% | 1024 hPa | - | - | - | - |
| 1777574821 | 8.89° C | 75% | 1024.1 hPa | - | - | - | - |
| 1777573621 | 10° C | 69% | 1024 hPa | - | - | - | - |
| 1777572420 | 9.44° C | 72% | 1024 hPa | - | - | - | - |
| 1777571221 | 9.44° C | 72% | 1023.9 hPa | - | - | - | - |
| 1777570020 | 8.89° C | 75% | 1023.9 hPa | - | - | - | - |
| 1777568821 | 9.44° C | 73% | 1024 hPa | - | - | - | - |
| 1777567620 | 8.89° C | 74% | 1024.2 hPa | - | - | - | - |
| 1777566421 | 9.44° C | 72% | 1024.3 hPa | - | - | - | - |
| 1777565221 | 8.89° C | 73% | 1024.5 hPa | - | - | - | - |
| 1777564020 | 8.89° C | 73% | 1024.8 hPa | - | - | - | - |
| 1777562820 | 8.33° C | 75% | 1024.8 hPa | - | - | - | - |
| 1777561620 | 8.33° C | 76% | 1024.7 hPa | - | - | - | - |
* Rain since midnight (hover to see other rain measurements)
** Current wind speed in m/s (hover to see current wind gust speed)